sensor_id;sensor_type;location;lat;lon;timestamp;P1;durP1;ratioP1;P2;durP2;ratioP2
49502;SDS011;35409;48.776;9.204;2023-09-19T00:02:16;3.00;;;0.98;;
49502;SDS011;35409;48.776;9.204;2023-09-19T00:04:42;1.73;;;1.02;;
49502;SDS011;35409;48.776;9.204;2023-09-19T00:07:08;1.70;;;0.70;;
49502;SDS011;35409;48.776;9.204;2023-09-19T00:09:36;2.30;;;0.90;;
49502;SDS011;35409;48.776;9.204;2023-09-19T00:12:04;1.05;;;0.88;;
49502;SDS011;35409;48.776;9.204;2023-09-19T00:14:30;2.35;;;1.10;;
49502;SDS011;35409;48.776;9.204;2023-09-19T00:16:59;2.45;;;1.10;;
49502;SDS011;35409;48.776;9.204;2023-09-19T00:19:26;1.23;;;0.80;;
49502;SDS011;35409;48.776;9.204;2023-09-19T00:21:51;2.13;;;0.98;;
49502;SDS011;35409;48.776;9.204;2023-09-19T00:24:18;2.03;;;0.77;;
49502;SDS011;35409;48.776;9.204;2023-09-19T00:26:44;0.73;;;0.70;;
49502;SDS011;35409;48.776;9.204;2023-09-19T00:29:12;2.17;;;0.80;;
49502;SDS011;35409;48.776;9.204;2023-09-19T00:31:42;1.98;;;0.73;;
49502;SDS011;35409;48.776;9.204;2023-09-19T00:34:08;0.98;;;0.73;;
49502;SDS011;35409;48.776;9.204;2023-09-19T00:36:35;1.70;;;1.00;;
49502;SDS011;35409;48.776;9.204;2023-09-19T00:39:03;3.20;;;0.93;;
49502;SDS011;35409;48.776;9.204;2023-09-19T00:41:30;1.90;;;0.90;;
49502;SDS011;35409;48.776;9.204;2023-09-19T00:46:27;2.55;;;1.35;;
49502;SDS011;35409;48.776;9.204;2023-09-19T00:48:53;1.50;;;0.80;;
49502;SDS011;35409;48.776;9.204;2023-09-19T00:51:19;2.03;;;0.80;;
49502;SDS011;35409;48.776;9.204;2023-09-19T00:53:47;1.52;;;0.88;;
49502;SDS011;35409;48.776;9.204;2023-09-19T00:56:13;2.40;;;1.08;;
49502;SDS011;35409;48.776;9.204;2023-09-19T00:58:40;1.10;;;0.80;;
49502;SDS011;35409;48.776;9.204;2023-09-19T01:01:05;2.28;;;1.00;;
49502;SDS011;35409;48.776;9.204;2023-09-19T01:03:34;2.40;;;0.85;;
49502;SDS011;35409;48.776;9.204;2023-09-19T01:06:05;1.77;;;0.70;;
49502;SDS011;35409;48.776;9.204;2023-09-19T01:08:30;1.00;;;0.80;;
49502;SDS011;35409;48.776;9.204;2023-09-19T01:10:59;2.50;;;0.80;;
49502;SDS011;35409;48.776;9.204;2023-09-19T01:14:19;1.00;;;0.70;;
49502;SDS011;35409;48.776;9.204;2023-09-19T01:29:41;1.30;;;0.68;;
49502;SDS011;35409;48.776;9.204;2023-09-19T01:32:09;1.83;;;1.10;;
49502;SDS011;35409;48.776;9.204;2023-09-19T01:34:46;0.90;;;0.77;;
49502;SDS011;35409;48.776;9.204;2023-09-19T01:37:14;0.55;;;0.43;;
49502;SDS011;35409;48.776;9.204;2023-09-19T01:39:44;3.22;;;0.70;;
49502;SDS011;35409;48.776;9.204;2023-09-19T01:45:09;1.45;;;0.80;;
49502;SDS011;35409;48.776;9.204;2023-09-19T01:47:56;2.63;;;0.88;;
49502;SDS011;35409;48.776;9.204;2023-09-19T01:50:32;1.48;;;0.70;;
49502;SDS011;35409;48.776;9.204;2023-09-19T01:53:22;1.13;;;0.77;;
49502;SDS011;35409;48.776;9.204;2023-09-19T02:00:54;1.40;;;0.93;;
49502;SDS011;35409;48.776;9.204;2023-09-19T02:03:23;0.93;;;0.68;;
49502;SDS011;35409;48.776;9.204;2023-09-19T02:05:50;3.88;;;0.80;;
49502;SDS011;35409;48.776;9.204;2023-09-19T02:08:19;2.78;;;0.70;;
49502;SDS011;35409;48.776;9.204;2023-09-19T02:10:46;0.98;;;0.80;;
49502;SDS011;35409;48.776;9.204;2023-09-19T02:13:17;1.02;;;0.68;;
49502;SDS011;35409;48.776;9.204;2023-09-19T02:15:44;1.25;;;0.43;;
49502;SDS011;35409;48.776;9.204;2023-09-19T02:18:11;0.60;;;0.60;;
49502;SDS011;35409;48.776;9.204;2023-09-19T02:20:39;1.20;;;0.80;;
49502;SDS011;35409;48.776;9.204;2023-09-19T02:23:05;2.10;;;0.70;;
49502;SDS011;35409;48.776;9.204;2023-09-19T02:25:33;0.95;;;0.60;;
49502;SDS011;35409;48.776;9.204;2023-09-19T02:27:58;3.20;;;0.70;;
49502;SDS011;35409;48.776;9.204;2023-09-19T02:30:26;1.15;;;0.70;;
49502;SDS011;35409;48.776;9.204;2023-09-19T02:32:51;2.55;;;0.68;;
49502;SDS011;35409;48.776;9.204;2023-09-19T02:35:17;2.00;;;0.90;;
49502;SDS011;35409;48.776;9.204;2023-09-19T02:37:46;1.40;;;0.63;;
49502;SDS011;35409;48.776;9.204;2023-09-19T02:40:12;1.00;;;0.85;;
49502;SDS011;35409;48.776;9.204;2023-09-19T02:42:45;1.67;;;0.70;;
49502;SDS011;35409;48.776;9.204;2023-09-19T02:45:17;3.50;;;0.88;;
49502;SDS011;35409;48.776;9.204;2023-09-19T02:47:46;5.03;;;0.88;;
49502;SDS011;35409;48.776;9.204;2023-09-19T02:50:12;1.85;;;0.82;;
49502;SDS011;35409;48.776;9.204;2023-09-19T02:52:41;2.08;;;0.68;;
49502;SDS011;35409;48.776;9.204;2023-09-19T02:55:14;1.25;;;0.70;;
49502;SDS011;35409;48.776;9.204;2023-09-19T02:57:52;3.28;;;0.90;;
49502;SDS011;35409;48.776;9.204;2023-09-19T03:00:21;1.30;;;0.55;;
49502;SDS011;35409;48.776;9.204;2023-09-19T03:02:49;0.70;;;0.70;;
49502;SDS011;35409;48.776;9.204;2023-09-19T03:05:15;1.95;;;0.68;;
49502;SDS011;35409;48.776;9.204;2023-09-19T03:07:41;2.85;;;1.65;;
49502;SDS011;35409;48.776;9.204;2023-09-19T03:10:08;2.40;;;0.90;;
49502;SDS011;35409;48.776;9.204;2023-09-19T03:12:34;0.80;;;0.77;;
49502;SDS011;35409;48.776;9.204;2023-09-19T03:15:00;0.73;;;0.70;;
49502;SDS011;35409;48.776;9.204;2023-09-19T03:17:26;4.40;;;0.90;;
49502;SDS011;35409;48.776;9.204;2023-09-19T03:19:52;1.75;;;0.80;;
49502;SDS011;35409;48.776;9.204;2023-09-19T03:22:18;2.85;;;0.80;;
49502;SDS011;35409;48.776;9.204;2023-09-19T03:24:44;1.77;;;0.65;;
49502;SDS011;35409;48.776;9.204;2023-09-19T03:27:11;0.65;;;0.65;;
49502;SDS011;35409;48.776;9.204;2023-09-19T03:29:39;3.20;;;0.82;;
49502;SDS011;35409;48.776;9.204;2023-09-19T03:32:04;2.85;;;1.05;;
49502;SDS011;35409;48.776;9.204;2023-09-19T03:34:30;5.10;;;0.95;;
49502;SDS011;35409;48.776;9.204;2023-09-19T03:36:56;2.40;;;0.93;;
49502;SDS011;35409;48.776;9.204;2023-09-19T03:39:21;1.67;;;1.35;;
49502;SDS011;35409;48.776;9.204;2023-09-19T03:41:47;0.70;;;0.70;;
49502;SDS011;35409;48.776;9.204;2023-09-19T03:44:14;1.38;;;0.80;;
49502;SDS011;35409;48.776;9.204;2023-09-19T03:46:40;1.80;;;0.93;;
49502;SDS011;35409;48.776;9.204;2023-09-19T03:49:05;0.70;;;0.70;;
49502;SDS011;35409;48.776;9.204;2023-09-19T03:51:31;2.15;;;0.88;;
49502;SDS011;35409;48.776;9.204;2023-09-19T03:53:59;1.67;;;0.77;;
49502;SDS011;35409;48.776;9.204;2023-09-19T03:56:24;2.05;;;1.10;;
49502;SDS011;35409;48.776;9.204;2023-09-19T03:58:50;2.25;;;0.90;;
49502;SDS011;35409;48.776;9.204;2023-09-19T04:01:16;2.63;;;1.05;;
49502;SDS011;35409;48.776;9.204;2023-09-19T04:03:43;1.52;;;0.82;;
49502;SDS011;35409;48.776;9.204;2023-09-19T04:06:15;2.67;;;1.15;;
49502;SDS011;35409;48.776;9.204;2023-09-19T04:08:42;0.90;;;0.90;;
49502;SDS011;35409;48.776;9.204;2023-09-19T04:11:08;2.63;;;1.08;;
49502;SDS011;35409;48.776;9.204;2023-09-19T04:13:34;1.83;;;1.10;;
49502;SDS011;35409;48.776;9.204;2023-09-19T04:16:00;1.90;;;0.90;;
49502;SDS011;35409;48.776;9.204;2023-09-19T04:18:25;1.05;;;0.93;;
49502;SDS011;35409;48.776;9.204;2023-09-19T04:20:51;3.13;;;1.15;;
49502;SDS011;35409;48.776;9.204;2023-09-19T04:23:17;2.65;;;1.08;;
49502;SDS011;35409;48.776;9.204;2023-09-19T04:25:46;3.33;;;0.93;;
49502;SDS011;35409;48.776;9.204;2023-09-19T04:28:13;2.17;;;0.88;;
49502;SDS011;35409;48.776;9.204;2023-09-19T04:30:39;2.72;;;0.98;;
49502;SDS011;35409;48.776;9.204;2023-09-19T04:33:07;2.33;;;1.10;;
49502;SDS011;35409;48.776;9.204;2023-09-19T04:35:33;1.35;;;0.95;;
49502;SDS011;35409;48.776;9.204;2023-09-19T04:38:00;5.18;;;1.48;;
49502;SDS011;35409;48.776;9.204;2023-09-19T04:40:26;0.95;;;0.82;;
49502;SDS011;35409;48.776;9.204;2023-09-19T04:42:54;2.95;;;1.30;;
49502;SDS011;35409;48.776;9.204;2023-09-19T04:45:24;2.20;;;1.00;;
49502;SDS011;35409;48.776;9.204;2023-09-19T04:47:49;3.58;;;1.25;;
49502;SDS011;35409;48.776;9.204;2023-09-19T04:50:15;1.40;;;1.08;;
49502;SDS011;35409;48.776;9.204;2023-09-19T04:52:43;2.10;;;1.13;;
49502;SDS011;35409;48.776;9.204;2023-09-19T04:55:10;1.17;;;0.90;;
49502;SDS011;35409;48.776;9.204;2023-09-19T04:57:45;1.35;;;0.95;;
49502;SDS011;35409;48.776;9.204;2023-09-19T05:00:16;3.17;;;1.40;;
49502;SDS011;35409;48.776;9.204;2023-09-19T05:02:43;3.55;;;1.05;;
49502;SDS011;35409;48.776;9.204;2023-09-19T05:05:10;1.90;;;1.00;;
49502;SDS011;35409;48.776;9.204;2023-09-19T05:07:36;1.05;;;0.95;;
49502;SDS011;35409;48.776;9.204;2023-09-19T05:10:04;2.97;;;1.27;;
49502;SDS011;35409;48.776;9.204;2023-09-19T05:12:33;3.13;;;1.40;;
49502;SDS011;35409;48.776;9.204;2023-09-19T05:15:00;2.38;;;1.20;;
49502;SDS011;35409;48.776;9.204;2023-09-19T05:17:29;3.75;;;1.75;;
49502;SDS011;35409;48.776;9.204;2023-09-19T05:19:56;2.50;;;1.10;;
49502;SDS011;35409;48.776;9.204;2023-09-19T05:22:22;2.25;;;1.65;;
49502;SDS011;35409;48.776;9.204;2023-09-19T05:24:49;2.03;;;1.40;;
49502;SDS011;35409;48.776;9.204;2023-09-19T05:27:16;3.20;;;1.40;;
49502;SDS011;35409;48.776;9.204;2023-09-19T05:29:42;2.35;;;1.40;;
49502;SDS011;35409;48.776;9.204;2023-09-19T05:32:09;2.58;;;1.92;;
49502;SDS011;35409;48.776;9.204;2023-09-19T05:34:35;2.50;;;1.30;;
49502;SDS011;35409;48.776;9.204;2023-09-19T05:37:01;3.47;;;1.45;;
49502;SDS011;35409;48.776;9.204;2023-09-19T05:39:27;1.58;;;1.33;;
49502;SDS011;35409;48.776;9.204;2023-09-19T05:41:53;5.03;;;1.77;;
49502;SDS011;35409;48.776;9.204;2023-09-19T05:44:18;3.65;;;1.50;;
49502;SDS011;35409;48.776;9.204;2023-09-19T05:46:44;2.95;;;1.35;;
49502;SDS011;35409;48.776;9.204;2023-09-19T05:49:13;5.00;;;1.23;;
49502;SDS011;35409;48.776;9.204;2023-09-19T05:51:39;1.30;;;1.20;;
49502;SDS011;35409;48.776;9.204;2023-09-19T05:54:05;4.30;;;1.50;;
49502;SDS011;35409;48.776;9.204;2023-09-19T05:56:30;7.18;;;1.92;;
49502;SDS011;35409;48.776;9.204;2023-09-19T05:58:56;3.60;;;1.50;;
49502;SDS011;35409;48.776;9.204;2023-09-19T06:01:22;4.78;;;1.40;;
49502;SDS011;35409;48.776;9.204;2023-09-19T06:03:47;2.10;;;1.20;;
49502;SDS011;35409;48.776;9.204;2023-09-19T06:06:13;2.75;;;1.48;;
49502;SDS011;35409;48.776;9.204;2023-09-19T06:08:39;3.80;;;1.50;;
49502;SDS011;35409;48.776;9.204;2023-09-19T06:11:05;2.45;;;1.75;;
49502;SDS011;35409;48.776;9.204;2023-09-19T06:13:34;6.50;;;2.20;;
49502;SDS011;35409;48.776;9.204;2023-09-19T06:15:59;5.68;;;1.90;;
49502;SDS011;35409;48.776;9.204;2023-09-19T06:18:30;3.97;;;1.92;;
49502;SDS011;35409;48.776;9.204;2023-09-19T06:21:01;4.93;;;1.58;;
49502;SDS011;35409;48.776;9.204;2023-09-19T06:23:32;1.63;;;1.20;;
49502;SDS011;35409;48.776;9.204;2023-09-19T06:26:01;4.30;;;1.42;;
49502;SDS011;35409;48.776;9.204;2023-09-19T06:28:28;2.17;;;1.40;;
49502;SDS011;35409;48.776;9.204;2023-09-19T06:30:54;4.85;;;1.80;;
49502;SDS011;35409;48.776;9.204;2023-09-19T06:33:20;5.05;;;1.80;;
49502;SDS011;35409;48.776;9.204;2023-09-19T06:35:46;4.20;;;1.55;;
49502;SDS011;35409;48.776;9.204;2023-09-19T06:38:13;4.25;;;2.38;;
49502;SDS011;35409;48.776;9.204;2023-09-19T06:40:40;5.53;;;1.60;;
49502;SDS011;35409;48.776;9.204;2023-09-19T06:43:12;4.32;;;1.98;;
49502;SDS011;35409;48.776;9.204;2023-09-19T06:45:39;5.53;;;2.35;;
49502;SDS011;35409;48.776;9.204;2023-09-19T06:48:04;3.58;;;1.98;;
49502;SDS011;35409;48.776;9.204;2023-09-19T06:50:30;4.78;;;2.00;;
49502;SDS011;35409;48.776;9.204;2023-09-19T06:52:58;3.90;;;1.90;;
49502;SDS011;35409;48.776;9.204;2023-09-19T06:55:25;3.05;;;1.75;;
49502;SDS011;35409;48.776;9.204;2023-09-19T06:57:52;5.57;;;1.58;;
49502;SDS011;35409;48.776;9.204;2023-09-19T07:00:21;5.07;;;1.88;;
49502;SDS011;35409;48.776;9.204;2023-09-19T07:02:55;4.30;;;1.95;;
49502;SDS011;35409;48.776;9.204;2023-09-19T07:05:33;4.53;;;1.60;;
49502;SDS011;35409;48.776;9.204;2023-09-19T07:08:04;3.83;;;1.80;;
49502;SDS011;35409;48.776;9.204;2023-09-19T07:10:31;2.90;;;1.50;;
49502;SDS011;35409;48.776;9.204;2023-09-19T07:13:00;3.47;;;1.63;;
49502;SDS011;35409;48.776;9.204;2023-09-19T07:15:28;3.13;;;1.70;;
49502;SDS011;35409;48.776;9.204;2023-09-19T07:17:56;3.63;;;1.80;;
49502;SDS011;35409;48.776;9.204;2023-09-19T07:20:22;3.35;;;1.80;;
49502;SDS011;35409;48.776;9.204;2023-09-19T07:22:52;3.70;;;1.60;;
49502;SDS011;35409;48.776;9.204;2023-09-19T07:25:20;4.05;;;1.88;;
49502;SDS011;35409;48.776;9.204;2023-09-19T07:27:46;2.85;;;1.40;;
49502;SDS011;35409;48.776;9.204;2023-09-19T07:30:11;6.35;;;1.52;;
49502;SDS011;35409;48.776;9.204;2023-09-19T07:32:37;2.88;;;1.85;;
49502;SDS011;35409;48.776;9.204;2023-09-19T07:35:03;4.15;;;1.67;;
49502;SDS011;35409;48.776;9.204;2023-09-19T07:37:30;4.25;;;1.67;;
49502;SDS011;35409;48.776;9.204;2023-09-19T07:40:07;7.70;;;1.85;;
49502;SDS011;35409;48.776;9.204;2023-09-19T07:42:36;5.15;;;1.60;;
49502;SDS011;35409;48.776;9.204;2023-09-19T07:45:04;4.70;;;1.80;;
49502;SDS011;35409;48.776;9.204;2023-09-19T07:47:30;3.15;;;1.20;;
49502;SDS011;35409;48.776;9.204;2023-09-19T07:49:57;4.35;;;1.58;;
49502;SDS011;35409;48.776;9.204;2023-09-19T07:52:23;5.28;;;1.90;;
49502;SDS011;35409;48.776;9.204;2023-09-19T07:54:49;5.22;;;1.65;;
49502;SDS011;35409;48.776;9.204;2023-09-19T07:57:15;5.72;;;2.75;;
49502;SDS011;35409;48.776;9.204;2023-09-19T07:59:41;5.70;;;2.90;;
49502;SDS011;35409;48.776;9.204;2023-09-19T08:02:07;3.28;;;2.00;;
49502;SDS011;35409;48.776;9.204;2023-09-19T08:04:40;3.13;;;1.27;;
49502;SDS011;35409;48.776;9.204;2023-09-19T08:07:11;2.78;;;1.65;;
49502;SDS011;35409;48.776;9.204;2023-09-19T08:09:37;2.72;;;1.55;;
49502;SDS011;35409;48.776;9.204;2023-09-19T08:12:03;7.20;;;1.80;;
49502;SDS011;35409;48.776;9.204;2023-09-19T08:14:30;4.80;;;1.48;;
49502;SDS011;35409;48.776;9.204;2023-09-19T08:16:58;2.20;;;1.20;;
49502;SDS011;35409;48.776;9.204;2023-09-19T08:19:25;2.90;;;1.67;;
49502;SDS011;35409;48.776;9.204;2023-09-19T08:21:57;3.30;;;1.30;;
49502;SDS011;35409;48.776;9.204;2023-09-19T08:24:24;3.45;;;1.13;;
49502;SDS011;35409;48.776;9.204;2023-09-19T08:26:53;2.88;;;1.23;;
49502;SDS011;35409;48.776;9.204;2023-09-19T08:29:22;2.95;;;1.05;;
49502;SDS011;35409;48.776;9.204;2023-09-19T08:31:55;2.28;;;1.27;;
49502;SDS011;35409;48.776;9.204;2023-09-19T08:34:25;1.63;;;1.25;;
49502;SDS011;35409;48.776;9.204;2023-09-19T08:36:51;2.07;;;1.27;;
49502;SDS011;35409;48.776;9.204;2023-09-19T08:39:21;1.83;;;1.00;;
49502;SDS011;35409;48.776;9.204;2023-09-19T08:41:47;1.25;;;1.08;;
49502;SDS011;35409;48.776;9.204;2023-09-19T08:44:13;2.35;;;1.23;;
49502;SDS011;35409;48.776;9.204;2023-09-19T08:46:40;3.13;;;1.17;;
49502;SDS011;35409;48.776;9.204;2023-09-19T08:49:33;5.10;;;1.42;;
49502;SDS011;35409;48.776;9.204;2023-09-19T08:52:01;3.08;;;1.27;;
49502;SDS011;35409;48.776;9.204;2023-09-19T08:54:37;2.15;;;1.30;;
49502;SDS011;35409;48.776;9.204;2023-09-19T08:57:06;2.67;;;1.20;;
49502;SDS011;35409;48.776;9.204;2023-09-19T08:59:37;3.00;;;1.10;;
49502;SDS011;35409;48.776;9.204;2023-09-19T09:02:08;2.60;;;0.98;;
49502;SDS011;35409;48.776;9.204;2023-09-19T09:04:37;2.10;;;1.00;;
49502;SDS011;35409;48.776;9.204;2023-09-19T09:07:06;3.63;;;1.25;;
49502;SDS011;35409;48.776;9.204;2023-09-19T09:09:35;2.35;;;1.17;;
49502;SDS011;35409;48.776;9.204;2023-09-19T09:12:01;2.88;;;1.13;;
49502;SDS011;35409;48.776;9.204;2023-09-19T09:14:28;3.28;;;0.98;;
49502;SDS011;35409;48.776;9.204;2023-09-19T09:16:55;3.33;;;1.30;;
49502;SDS011;35409;48.776;9.204;2023-09-19T09:19:23;4.00;;;1.55;;
49502;SDS011;35409;48.776;9.204;2023-09-19T09:21:50;3.03;;;1.33;;
49502;SDS011;35409;48.776;9.204;2023-09-19T09:24:26;3.20;;;1.30;;
49502;SDS011;35409;48.776;9.204;2023-09-19T09:26:57;2.53;;;1.40;;
49502;SDS011;35409;48.776;9.204;2023-09-19T09:29:44;3.42;;;1.42;;
49502;SDS011;35409;48.776;9.204;2023-09-19T09:32:21;2.17;;;1.35;;
49502;SDS011;35409;48.776;9.204;2023-09-19T09:34:58;5.80;;;1.27;;
49502;SDS011;35409;48.776;9.204;2023-09-19T09:37:25;2.78;;;1.60;;
49502;SDS011;35409;48.776;9.204;2023-09-19T09:39:56;3.63;;;1.60;;
49502;SDS011;35409;48.776;9.204;2023-09-19T09:42:37;6.55;;;1.88;;
49502;SDS011;35409;48.776;9.204;2023-09-19T09:45:19;3.15;;;1.42;;
49502;SDS011;35409;48.776;9.204;2023-09-19T09:48:01;2.53;;;1.20;;
49502;SDS011;35409;48.776;9.204;2023-09-19T09:50:39;3.80;;;1.50;;
49502;SDS011;35409;48.776;9.204;2023-09-19T09:53:28;2.05;;;1.38;;
49502;SDS011;35409;48.776;9.204;2023-09-19T09:58:24;4.88;;;1.58;;
49502;SDS011;35409;48.776;9.204;2023-09-19T10:00:57;1.63;;;1.23;;
49502;SDS011;35409;48.776;9.204;2023-09-19T10:03:31;4.88;;;1.50;;
49502;SDS011;35409;48.776;9.204;2023-09-19T10:05:59;2.38;;;1.50;;
49502;SDS011;35409;48.776;9.204;2023-09-19T10:08:27;1.98;;;1.30;;
49502;SDS011;35409;48.776;9.204;2023-09-19T10:10:56;2.10;;;1.25;;
49502;SDS011;35409;48.776;9.204;2023-09-19T10:13:32;2.03;;;1.30;;
49502;SDS011;35409;48.776;9.204;2023-09-19T10:16:03;1.98;;;1.23;;
49502;SDS011;35409;48.776;9.204;2023-09-19T10:18:35;2.92;;;1.60;;
49502;SDS011;35409;48.776;9.204;2023-09-19T10:21:03;3.05;;;1.67;;
49502;SDS011;35409;48.776;9.204;2023-09-19T10:23:31;1.52;;;1.33;;
49502;SDS011;35409;48.776;9.204;2023-09-19T10:25:59;2.83;;;1.65;;
49502;SDS011;35409;48.776;9.204;2023-09-19T10:28:27;2.15;;;1.45;;
49502;SDS011;35409;48.776;9.204;2023-09-19T10:30:55;2.47;;;1.50;;
49502;SDS011;35409;48.776;9.204;2023-09-19T10:33:23;1.80;;;1.30;;
49502;SDS011;35409;48.776;9.204;2023-09-19T10:35:54;1.98;;;1.27;;
49502;SDS011;35409;48.776;9.204;2023-09-19T10:40:51;5.50;;;1.60;;
49502;SDS011;35409;48.776;9.204;2023-09-19T10:43:21;2.70;;;1.40;;
49502;SDS011;35409;48.776;9.204;2023-09-19T10:45:54;2.38;;;1.33;;
49502;SDS011;35409;48.776;9.204;2023-09-19T10:48:26;3.92;;;1.20;;
49502;SDS011;35409;48.776;9.204;2023-09-19T10:51:12;2.67;;;1.15;;
49502;SDS011;35409;48.776;9.204;2023-09-19T10:53:51;3.70;;;1.30;;
49502;SDS011;35409;48.776;9.204;2023-09-19T10:56:24;2.60;;;1.10;;
49502;SDS011;35409;48.776;9.204;2023-09-19T11:01:42;4.40;;;1.65;;
49502;SDS011;35409;48.776;9.204;2023-09-19T11:04:21;3.90;;;1.67;;
49502;SDS011;35409;48.776;9.204;2023-09-19T11:07:07;1.90;;;1.13;;
49502;SDS011;35409;48.776;9.204;2023-09-19T11:14:56;3.88;;;1.52;;
49502;SDS011;35409;48.776;9.204;2023-09-19T11:17:34;1.75;;;1.30;;
49502;SDS011;35409;48.776;9.204;2023-09-19T11:30:30;2.47;;;1.20;;
49502;SDS011;35409;48.776;9.204;2023-09-19T11:49:16;3.10;;;1.08;;
49502;SDS011;35409;48.776;9.204;2023-09-19T11:54:12;1.58;;;1.40;;
49502;SDS011;35409;48.776;9.204;2023-09-19T11:56:43;3.50;;;1.15;;
49502;SDS011;35409;48.776;9.204;2023-09-19T11:59:10;1.67;;;1.08;;
49502;SDS011;35409;48.776;9.204;2023-09-19T12:01:37;3.53;;;1.38;;
49502;SDS011;35409;48.776;9.204;2023-09-19T12:04:11;2.45;;;1.23;;
49502;SDS011;35409;48.776;9.204;2023-09-19T12:06:37;6.22;;;1.10;;
49502;SDS011;35409;48.776;9.204;2023-09-19T12:09:12;2.05;;;0.93;;
49502;SDS011;35409;48.776;9.204;2023-09-19T12:11:42;1.55;;;0.95;;
49502;SDS011;35409;48.776;9.204;2023-09-19T12:14:09;1.48;;;1.10;;
49502;SDS011;35409;48.776;9.204;2023-09-19T12:16:35;2.45;;;1.25;;
49502;SDS011;35409;48.776;9.204;2023-09-19T12:19:19;1.67;;;1.10;;
49502;SDS011;35409;48.776;9.204;2023-09-19T12:21:53;3.53;;;1.10;;
49502;SDS011;35409;48.776;9.204;2023-09-19T12:24:31;2.90;;;1.17;;
49502;SDS011;35409;48.776;9.204;2023-09-19T12:27:01;2.30;;;1.05;;
49502;SDS011;35409;48.776;9.204;2023-09-19T12:32:09;1.67;;;0.90;;
49502;SDS011;35409;48.776;9.204;2023-09-19T12:34:35;3.55;;;1.30;;
49502;SDS011;35409;48.776;9.204;2023-09-19T12:39:41;2.33;;;1.00;;
49502;SDS011;35409;48.776;9.204;2023-09-19T12:42:09;1.05;;;0.90;;
49502;SDS011;35409;48.776;9.204;2023-09-19T12:44:39;1.63;;;1.02;;
49502;SDS011;35409;48.776;9.204;2023-09-19T12:47:17;2.08;;;1.05;;
49502;SDS011;35409;48.776;9.204;2023-09-19T12:55:20;6.43;;;1.52;;
49502;SDS011;35409;48.776;9.204;2023-09-19T12:57:57;1.15;;;1.05;;
49502;SDS011;35409;48.776;9.204;2023-09-19T13:00:34;1.25;;;1.15;;
49502;SDS011;35409;48.776;9.204;2023-09-19T13:03:15;2.30;;;1.20;;
49502;SDS011;35409;48.776;9.204;2023-09-19T13:05:56;3.00;;;1.00;;
49502;SDS011;35409;48.776;9.204;2023-09-19T13:08:26;2.28;;;1.13;;
49502;SDS011;35409;48.776;9.204;2023-09-19T13:11:09;1.98;;;1.40;;
49502;SDS011;35409;48.776;9.204;2023-09-19T13:13:46;2.47;;;1.30;;
49502;SDS011;35409;48.776;9.204;2023-09-19T13:16:14;1.95;;;1.40;;
49502;SDS011;35409;48.776;9.204;2023-09-19T13:18:45;5.75;;;1.17;;
49502;SDS011;35409;48.776;9.204;2023-09-19T13:21:34;2.42;;;1.40;;
49502;SDS011;35409;48.776;9.204;2023-09-19T13:24:23;1.83;;;1.10;;
49502;SDS011;35409;48.776;9.204;2023-09-19T13:26:54;2.10;;;1.13;;
49502;SDS011;35409;48.776;9.204;2023-09-19T13:29:20;1.83;;;1.30;;
49502;SDS011;35409;48.776;9.204;2023-09-19T13:31:46;15.13;;;1.55;;
49502;SDS011;35409;48.776;9.204;2023-09-19T13:34:13;3.00;;;1.38;;
49502;SDS011;35409;48.776;9.204;2023-09-19T13:36:40;2.20;;;1.20;;
49502;SDS011;35409;48.776;9.204;2023-09-19T13:39:07;3.50;;;1.38;;
49502;SDS011;35409;48.776;9.204;2023-09-19T13:41:34;4.78;;;1.40;;
49502;SDS011;35409;48.776;9.204;2023-09-19T13:44:03;2.33;;;1.42;;
49502;SDS011;35409;48.776;9.204;2023-09-19T13:46:29;2.45;;;1.10;;
49502;SDS011;35409;48.776;9.204;2023-09-19T13:48:58;3.08;;;1.40;;
49502;SDS011;35409;48.776;9.204;2023-09-19T13:51:25;1.55;;;1.17;;
49502;SDS011;35409;48.776;9.204;2023-09-19T13:53:51;1.65;;;1.13;;
49502;SDS011;35409;48.776;9.204;2023-09-19T13:56:20;3.92;;;1.23;;
49502;SDS011;35409;48.776;9.204;2023-09-19T13:58:45;2.22;;;1.70;;
49502;SDS011;35409;48.776;9.204;2023-09-19T14:01:11;1.17;;;1.08;;
49502;SDS011;35409;48.776;9.204;2023-09-19T14:03:40;2.05;;;1.20;;
49502;SDS011;35409;48.776;9.204;2023-09-19T14:06:11;3.05;;;1.27;;
49502;SDS011;35409;48.776;9.204;2023-09-19T14:08:37;1.13;;;0.88;;
49502;SDS011;35409;48.776;9.204;2023-09-19T14:11:07;1.55;;;1.23;;
49502;SDS011;35409;48.776;9.204;2023-09-19T14:13:33;5.35;;;1.35;;
49502;SDS011;35409;48.776;9.204;2023-09-19T14:16:03;2.88;;;1.40;;
49502;SDS011;35409;48.776;9.204;2023-09-19T14:18:30;2.45;;;1.30;;
49502;SDS011;35409;48.776;9.204;2023-09-19T14:20:56;5.28;;;1.20;;
49502;SDS011;35409;48.776;9.204;2023-09-19T14:23:22;2.63;;;1.73;;
49502;SDS011;35409;48.776;9.204;2023-09-19T14:25:48;2.03;;;1.38;;
49502;SDS011;35409;48.776;9.204;2023-09-19T14:28:14;1.70;;;1.30;;
49502;SDS011;35409;48.776;9.204;2023-09-19T14:30:39;2.13;;;1.30;;
49502;SDS011;35409;48.776;9.204;2023-09-19T14:33:05;1.98;;;1.50;;
49502;SDS011;35409;48.776;9.204;2023-09-19T14:35:31;2.10;;;1.30;;
49502;SDS011;35409;48.776;9.204;2023-09-19T14:37:57;3.30;;;1.73;;
49502;SDS011;35409;48.776;9.204;2023-09-19T14:40:22;2.45;;;1.30;;
49502;SDS011;35409;48.776;9.204;2023-09-19T14:42:48;3.35;;;1.42;;
49502;SDS011;35409;48.776;9.204;2023-09-19T14:45:13;1.60;;;1.17;;
49502;SDS011;35409;48.776;9.204;2023-09-19T14:47:43;1.97;;;1.30;;
49502;SDS011;35409;48.776;9.204;2023-09-19T14:50:11;2.35;;;1.45;;
49502;SDS011;35409;48.776;9.204;2023-09-19T14:52:37;3.65;;;1.42;;
49502;SDS011;35409;48.776;9.204;2023-09-19T14:55:05;1.67;;;1.27;;
49502;SDS011;35409;48.776;9.204;2023-09-19T14:57:31;2.20;;;1.10;;
49502;SDS011;35409;48.776;9.204;2023-09-19T14:59:58;2.10;;;1.58;;
49502;SDS011;35409;48.776;9.204;2023-09-19T15:02:25;1.45;;;1.15;;
49502;SDS011;35409;48.776;9.204;2023-09-19T15:04:51;2.05;;;1.40;;
49502;SDS011;35409;48.776;9.204;2023-09-19T15:07:17;3.10;;;1.50;;
49502;SDS011;35409;48.776;9.204;2023-09-19T15:09:43;1.35;;;0.95;;
49502;SDS011;35409;48.776;9.204;2023-09-19T15:12:10;1.55;;;1.08;;
49502;SDS011;35409;48.776;9.204;2023-09-19T15:14:39;2.47;;;1.27;;
49502;SDS011;35409;48.776;9.204;2023-09-19T15:17:06;2.05;;;1.15;;
49502;SDS011;35409;48.776;9.204;2023-09-19T15:19:32;1.42;;;1.20;;
49502;SDS011;35409;48.776;9.204;2023-09-19T15:21:58;2.17;;;1.20;;
49502;SDS011;35409;48.776;9.204;2023-09-19T15:24:23;2.55;;;1.42;;
49502;SDS011;35409;48.776;9.204;2023-09-19T15:26:51;1.58;;;1.33;;
49502;SDS011;35409;48.776;9.204;2023-09-19T15:29:17;2.45;;;1.52;;
49502;SDS011;35409;48.776;9.204;2023-09-19T15:31:42;1.83;;;1.00;;
49502;SDS011;35409;48.776;9.204;2023-09-19T15:34:08;1.55;;;1.08;;
49502;SDS011;35409;48.776;9.204;2023-09-19T15:36:34;3.17;;;1.17;;
49502;SDS011;35409;48.776;9.204;2023-09-19T15:41:34;1.55;;;1.25;;
49502;SDS011;35409;48.776;9.204;2023-09-19T15:44:04;1.20;;;1.10;;
49502;SDS011;35409;48.776;9.204;2023-09-19T15:46:35;1.20;;;1.02;;
49502;SDS011;35409;48.776;9.204;2023-09-19T15:49:02;2.30;;;1.30;;
49502;SDS011;35409;48.776;9.204;2023-09-19T15:51:28;1.70;;;1.30;;
49502;SDS011;35409;48.776;9.204;2023-09-19T15:53:54;2.25;;;1.40;;
49502;SDS011;35409;48.776;9.204;2023-09-19T15:56:21;4.38;;;0.95;;
49502;SDS011;35409;48.776;9.204;2023-09-19T15:58:48;1.88;;;1.15;;
49502;SDS011;35409;48.776;9.204;2023-09-19T16:01:15;1.48;;;1.00;;
49502;SDS011;35409;48.776;9.204;2023-09-19T16:03:45;2.03;;;1.10;;
49502;SDS011;35409;48.776;9.204;2023-09-19T16:06:13;2.17;;;1.20;;
49502;SDS011;35409;48.776;9.204;2023-09-19T16:08:41;1.52;;;1.00;;
49502;SDS011;35409;48.776;9.204;2023-09-19T16:11:08;2.80;;;1.00;;
49502;SDS011;35409;48.776;9.204;2023-09-19T16:13:35;1.65;;;1.00;;
49502;SDS011;35409;48.776;9.204;2023-09-19T16:16:02;1.55;;;1.10;;
49502;SDS011;35409;48.776;9.204;2023-09-19T16:18:28;1.48;;;1.23;;